Airfield :
LOGIN :

Register | Disclaimer

   EN    FR    IT 

 










Legend :    VFR   Marginal VFR   IFR   Intensive IFR   Very Intensive IFR
Visi :
Ceiling :
>= 8 km
>= 3000ft
5 to 8 km
1000 to 3000 ft
1500m to 5 km
500 to 1000 ft
800 to 1500m
200 to 500 ft
< 800m
< 200 ft
Symbols :   Thunderstorms  Fog  Heavy snow  Heavy precipitations  Wind > 20 kt
SIGMETs :     Misc.  Thunderstorms  Icing  Turbulence  Mountain Waves  Volcanic Ashes







- Airport Elevation : 425 ft
- IATA code : DTM


EDLW - Dortmund

CURRENT METAR :
  • 211720Z 21014KT 9999 -DZ FEW036 13/07 Q1011

EXPIRED METARs :
  • 211650Z 22011KT 9999 SCT046 14/07 Q1011
  • 211620Z 22012KT 9999 FEW020 14/08 Q1011
  • 211550Z 22013KT 9999 SCT048 15/08 Q1011
  • 211520Z 23012KT 190V250 9999 SCT048 15/08 Q1011
  • 211450Z 22012KT 9999 SCT040 16/10 Q1011
  • 211420Z 22012KT 9999 BKN030 16/11 Q1011

TAF TAF EDLW
Valid from the 21 at 12:00 until the 22 at 12:00 UTC


211100Z 2112/2212 20011KT 9999 BKN020
TEMPO 2117/2123 20015G25KT
BECMG 2203/2206 22015G25KT
TEMPO 2204/2212 22020G30KT
No reported NOTAMs for that airfield.



MET'MAP, your aeronautical weather chart ! - Copyright ORBIFLY December 2007 - Disclaimer

ORBIFLY MET'MAP TEAM :

Programming & Development : Alexandra Zaïnal
Concept & Development : Baudouin d'Aumeries
Co-Development & Prog : Marc-Olivier Méhu
Technical & hardware support : Manuel Goepfert

Contact : metmap@orbifly.com




SOURCES & CREDITS :

   NOAA